GMAD/AGA METAR and TAF weather

Enter ICAO airport designator
Station Type Date Time Source
GMAD METAR 2020/07/12 18:00 UTC NOAA

GMAD 121800Z 25007KT 8000 NSC 25/18 Q1011 NOSIG


Station Type Date Time Source
GMAD Decoded METAR 2020/07/12 18:00 UTC NOAA

Agadir Al Massira, Morocco (GMAD) 30-20N 009-24W 74M
Jul 12, 2020 - 02:00 PM EDT / 2020.07.12 1800 UTC
Wind: from the WSW (250 degrees) at 8 MPH (7 KT):0
Visibility: 4 mile(s):0
Temperature: 77 F (25 C)
Dew Point: 64 F (18 C)
Relative Humidity: 65%
Pressure (altimeter): 29.85 in. Hg (1011 hPa)
ob: GMAD 121800Z 25007KT 8000 NSC 25/18 Q1011 NOSIG
cycle: 18

Station Type Date Time Source
GMAD TAF 2020/07/12 18:18 UTC NOAA

TAF TAF GMAD 121700Z 1218/1324 26010KT 8000 SCT016
TEMPO 1305/1308 3000 BR BKN010

Example: see airport list